Time;durP1;ratioP1;P1;durP2;ratioP2;P2;SDS_P1;SDS_P2;PMS_P1;PMS_P2;Temp;Humidity;BMP_temperature;BMP_pressure;BME280_temperature;BME280_humidity;BME280_pressure;Samples;Min_cycle;Max_cycle;Signal;HPM_P1;HPM_P2
2021/01/04 00:02:23;;;;;;;4.03;3.63;;;;;;;4.66;75.98;100666.28;4856226;29;20021;-71
2021/01/04 00:05:01;;;;;;;4.43;4.00;;;;;;;4.64;75.94;100671.06;4848669;29;20045;-74
2021/01/04 00:07:41;;;;;;;4.72;4.18;;;;;;;4.64;75.71;100669.19;4854040;29;20028;-77
2021/01/04 00:10:25;;;;;;;4.05;3.70;;;;;;;4.66;75.79;100664.38;4850656;29;20033;-77
2021/01/04 00:12:58;;;;;;;4.93;4.55;;;;;;;4.70;75.78;100657.47;4855788;29;20060;-76
2021/01/04 00:15:50;;;;;;;5.00;4.30;;;;;;;4.70;75.42;100654.78;4856403;29;20149;-75
2021/01/04 00:18:56;;;;;;;4.45;4.03;;;;;;;4.68;75.61;100662.28;4849654;29;20030;-76
2021/01/04 00:21:47;;;;;;;5.28;3.35;;;;;;;4.68;75.53;100662.28;4848638;29;20033;-74
2021/01/04 00:24:30;;;;;;;4.03;3.67;;;;;;;4.70;75.64;100654.78;4853682;29;20477;-75
2021/01/04 00:27:17;;;;;;;4.03;3.67;;;;;;;4.74;75.54;100659.75;4857465;29;20025;-76
2021/01/04 00:29:42;;;;;;;4.15;3.78;;;;;;;4.72;75.45;100655.38;4856821;29;20065;-75
2021/01/04 00:32:30;;;;;;;3.72;2.85;;;;;;;4.77;75.20;100653.88;4829045;29;20133;-74
2021/01/04 00:34:58;;;;;;;5.50;3.42;;;;;;;4.78;75.19;100660.97;4855621;29;20049;-74
2021/01/04 00:38:14;;;;;;;4.07;3.78;;;;;;;4.81;74.98;100661.34;4852967;29;20030;-75
2021/01/04 00:41:01;;;;;;;4.78;3.63;;;;;;;4.79;74.72;100662.59;4846567;29;20025;-75
2021/01/04 00:43:50;;;;;;;5.03;3.15;;;;;;;4.83;74.39;100663.81;4856236;29;20063;-75
2021/01/04 00:46:21;;;;;;;4.90;3.20;;;;;;;4.82;74.43;100667.56;4852753;29;20452;-75
2021/01/04 00:49:02;;;;;;;3.38;3.08;;;;;;;4.84;74.67;100660.88;4867548;29;20389;-75
2021/01/04 00:52:09;;;;;;;10.30;4.07;;;;;;;4.87;74.32;100644.19;4850076;29;20029;-74
2021/01/04 00:54:50;;;;;;;3.90;3.65;;;;;;;4.89;74.44;100662.91;4855212;29;20025;-75
2021/01/04 00:58:00;;;;;;;8.15;4.45;;;;;;;4.91;74.34;100660.84;4848794;29;20029;-75
2021/01/04 01:00:37;;;;;;;4.28;4.00;;;;;;;4.89;74.43;100662.91;4843574;29;20472;-74
2021/01/04 01:03:26;;;;;;;4.85;4.45;;;;;;;4.95;74.51;100661.22;4857460;29;20045;-74
2021/01/04 01:06:17;;;;;;;4.95;4.45;;;;;;;4.96;74.06;100666.41;4849253;29;20026;-74
2021/01/04 01:09:01;;;;;;;5.80;4.38;;;;;;;4.95;74.65;100663.91;4854462;29;20033;-75
2021/01/04 01:11:51;;;;;;;5.38;4.68;;;;;;;4.99;74.29;100654.28;4848646;29;20851;-74
2021/01/04 01:14:29;;;;;;;4.38;3.97;;;;;;;4.92;74.01;100662.50;4858305;29;20376;-75
2021/01/04 01:17:32;;;;;;;5.55;4.05;;;;;;;4.89;74.09;100662.91;4850553;29;20083;-75
2021/01/04 01:20:04;;;;;;;5.75;3.95;;;;;;;4.87;74.77;100654.19;4851230;29;20045;-75
2021/01/04 01:22:33;;;;;;;4.10;3.17;;;;;;;4.89;74.52;100657.50;4853276;29;20037;-75
2021/01/04 01:25:06;;;;;;;4.47;4.07;;;;;;;4.90;74.26;100664.59;4864045;29;20517;-73
2021/01/04 01:27:31;;;;;;;3.72;3.47;;;;;;;4.88;74.34;100656.69;4849570;29;20030;-74
2021/01/04 01:30:09;;;;;;;4.40;3.42;;;;;;;4.95;74.50;100667.47;4854606;29;20041;-74
2021/01/04 01:32:40;;;;;;;7.13;3.95;;;;;;;4.98;74.43;100672.44;4848651;29;20034;-75
2021/01/04 01:35:14;;;;;;;3.78;3.47;;;;;;;5.03;74.38;100664.47;4849909;29;20029;-75
2021/01/04 01:37:58;;;;;;;3.70;3.40;;;;;;;5.07;74.04;100670.28;4850877;29;20093;-74
2021/01/04 01:41:01;;;;;;;3.50;3.20;;;;;;;5.15;73.97;100672.69;4866770;29;20308;-75
2021/01/04 01:43:38;;;;;;;4.00;3.25;;;;;;;5.13;73.90;100668.56;4846714;29;20112;-75
2021/01/04 01:46:21;;;;;;;2.67;2.30;;;;;;;5.16;73.53;100673.53;4851193;29;20034;-75
2021/01/04 01:49:18;;;;;;;2.92;2.42;;;;;;;5.17;73.57;100669.75;4848875;29;20043;-76
2021/01/04 01:51:58;;;;;;;1.77;1.67;;;;;;;5.16;73.63;100663.50;4861326;29;20432;-75
2021/01/04 01:54:48;;;;;;;4.38;2.13;;;;;;;5.18;73.41;100674.13;4848170;29;20044;-74
2021/01/04 01:58:10;;;;;;;;;;;;;;;;;;;;;
2021/01/04 02:00:53;;;;;;;1.75;1.63;;;;;;;5.24;73.51;100675.94;4831342;29;20611;-75
2021/01/04 02:03:55;;;;;;;2.63;1.90;;;;;;;5.29;73.02;100678.81;4848074;29;20025;-77
2021/01/04 02:06:57;;;;;;;1.75;1.65;;;;;;;5.33;72.45;100679.19;4856391;29;20050;-75
2021/01/04 02:09:47;;;;;;;1.73;1.63;;;;;;;5.35;72.99;100682.50;4852532;29;20033;-76
2021/01/04 02:12:42;;;;;;;1.67;1.48;;;;;;;5.38;73.05;100692.91;4854767;29;20049;-76
2021/01/04 02:15:19;;;;;;;1.88;1.45;;;;;;;5.41;72.25;100692.44;4852659;29;20469;-76
2021/01/04 02:18:19;;;;;;;1.40;1.30;;;;;;;5.42;72.40;100691.41;4854867;29;20036;-75
2021/01/04 02:21:18;;;;;;;1.33;1.25;;;;;;;5.47;72.32;100696.16;4850299;29;20041;-76
2021/01/04 02:24:01;;;;;;;3.75;1.30;;;;;;;5.48;72.06;100703.25;4872247;29;20038;-76
2021/01/04 02:26:39;;;;;;;0.90;0.90;;;;;;;5.50;71.81;100701.13;4856076;29;20366;-75
2021/01/04 02:29:06;;;;;;;0.95;0.88;;;;;;;5.51;71.88;100691.94;4853250;29;20037;-76
2021/01/04 02:31:37;;;;;;;2.10;1.25;;;;;;;5.51;71.54;100689.22;4856953;29;20037;-76
2021/01/04 02:34:09;;;;;;;1.42;1.33;;;;;;;5.45;71.06;100687.41;4857092;29;20022;-75
2021/01/04 02:36:46;;;;;;;5.13;2.25;;;;;;;5.39;71.30;100698.09;4848275;29;20040;-76
2021/01/04 02:39:19;;;;;;;3.45;1.48;;;;;;;5.33;71.00;100693.59;4849452;29;20086;-76
2021/01/04 02:42:15;;;;;;;3.17;1.83;;;;;;;5.24;71.14;100687.63;4846081;29;20041;-75
2021/01/04 02:44:42;;;;;;;4.30;2.33;;;;;;;5.18;71.46;100693.94;4853405;29;20033;-76
2021/01/04 02:47:26;;;;;;;1.48;1.38;;;;;;;5.20;71.66;100693.72;4852302;29;20041;-78
2021/01/04 02:50:17;;;;;;;2.40;2.20;;;;;;;5.18;71.76;100690.41;4849489;29;20076;-77
2021/01/04 02:53:10;;;;;;;4.75;2.20;;;;;;;5.15;71.70;100698.97;4851238;29;20037;-77
2021/01/04 02:55:55;;;;;;;1.65;1.55;;;;;;;5.10;71.58;100685.28;4849974;29;20136;-76
2021/01/04 02:58:41;;;;;;;6.72;2.25;;;;;;;5.11;71.82;100692.34;4855960;29;20041;-77
2021/01/04 03:01:25;;;;;;;1.70;1.50;;;;;;;5.03;71.58;100680.72;4848232;29;20036;-76
2021/01/04 03:03:50;;;;;;;2.25;1.27;;;;;;;4.92;71.61;100678.75;4867373;29;20033;-76
2021/01/04 03:06:25;;;;;;;0.75;0.70;;;;;;;4.87;72.37;100681.28;4855061;29;20185;-76
2021/01/04 03:08:50;;;;;;;6.82;1.52;;;;;;;4.83;71.85;100683.63;4849931;29;20093;-76
2021/01/04 03:11:25;;;;;;;1.50;1.40;;;;;;;4.79;72.13;100678.84;4869527;29;20029;-77
2021/01/04 03:14:33;;;;;;;1.42;1.33;;;;;;;4.76;72.28;100684.72;4856978;29;20056;-75
2021/01/04 03:17:19;;;;;;;7.22;1.30;;;;;;;4.70;71.76;100675.59;4839944;29;20133;-75
2021/01/04 03:20:05;;;;;;;0.88;0.85;;;;;;;4.64;72.09;100677.31;4858164;29;20481;-75
2021/01/04 03:22:33;;;;;;;;;;;;;;;4.57;71.78;100683.81;4850139;29;20034;-75
2021/01/04 03:24:58;;;;;;;1.05;0.85;;;;;;;4.43;72.07;100680.41;4860161;29;19916;-75
2021/01/04 03:27:42;;;;;;;3.25;1.15;;;;;;;4.29;72.07;100680.50;4859341;29;20037;-75
2021/01/04 03:30:14;;;;;;;1.23;0.70;;;;;;;4.10;71.87;100676.00;4840371;29;20170;-76
2021/01/04 03:32:40;;;;;;;4.70;1.23;;;;;;;3.93;73.01;100678.38;4858092;29;20036;-76
2021/01/04 03:35:09;;;;;;;3.90;1.52;;;;;;;3.77;73.26;100674.31;4854219;29;20477;-75
2021/01/04 03:37:34;;;;;;;1.30;1.20;;;;;;;3.66;74.22;100671.25;4856301;29;20030;-76
2021/01/04 03:40:29;;;;;;;2.83;1.35;;;;;;;3.61;73.38;100673.75;4861023;29;20041;-76
2021/01/04 03:43:15;;;;;;;1.60;1.50;;;;;;;3.56;73.60;100680.84;4854793;29;20457;-77
2021/01/04 03:45:40;;;;;;;2.72;1.30;;;;;;;3.53;74.20;100682.09;4862035;29;20049;-77
2021/01/04 03:48:06;;;;;;;1.33;0.98;;;;;;;3.49;74.42;100678.16;4872762;29;20088;-75
2021/01/04 03:50:34;;;;;;;1.63;1.00;;;;;;;3.47;75.17;100682.94;4840800;29;20029;-76
2021/01/04 03:52:59;;;;;;;5.95;0.98;;;;;;;3.44;74.33;100677.97;4857687;29;20041;-75
2021/01/04 03:55:25;;;;;;;1.20;0.80;;;;;;;3.41;74.44;100681.09;4863346;29;20380;-73
2021/01/04 03:57:50;;;;;;;4.45;1.38;;;;;;;3.37;74.75;100666.34;4853381;29;20493;-73
2021/01/04 04:00:19;;;;;;;1.10;1.00;;;;;;;3.40;74.67;100676.72;4857517;29;20029;-74
2021/01/04 04:02:51;;;;;;;1.30;1.20;;;;;;;3.32;75.02;100670.50;4857676;29;20029;-74
2021/01/04 04:05:18;;;;;;;1.20;0.70;;;;;;;3.29;75.64;100670.94;4850350;29;20388;-75
2021/01/04 04:07:44;;;;;;;0.80;0.80;;;;;;;3.24;76.01;100673.44;4861771;29;20118;-76
2021/01/04 04:10:22;;;;;;;1.17;1.08;;;;;;;3.14;75.01;100654.97;4833308;29;20147;-74
2021/01/04 04:12:56;;;;;;;1.55;1.25;;;;;;;3.16;75.82;100659.34;4857952;29;20057;-74
2021/01/04 04:15:25;;;;;;;6.03;1.33;;;;;;;3.13;76.20;100660.56;4852847;29;20044;-75
2021/01/04 04:20:57;;;;;;;3.25;1.20;;;;;;;2.93;75.61;100650.63;4848630;29;20053;-75
2021/01/04 04:23:43;;;;;;;3.17;1.30;;;;;;;2.93;75.94;100663.31;4850071;29;20141;-75
2021/01/04 04:26:15;;;;;;;2.42;1.00;;;;;;;2.88;76.12;100653.13;4850268;29;20121;-74
2021/01/04 04:28:41;;;;;;;1.20;1.10;;;;;;;2.85;76.50;100648.16;4865106;29;20038;-74
2021/01/04 04:31:06;;;;;;;1.50;1.33;;;;;;;2.80;75.81;100650.63;4853465;29;20033;-75
2021/01/04 04:33:32;;;;;;;1.98;0.88;;;;;;;2.74;76.91;100646.06;4853185;29;20053;-75
2021/01/04 04:35:57;;;;;;;4.78;1.08;;;;;;;2.68;76.66;100645.03;4849707;29;20037;-76
2021/01/04 04:38:22;;;;;;;3.45;1.20;;;;;;;2.68;77.54;100652.31;4857764;29;20033;-76
2021/01/04 04:40:50;;;;;;;1.80;1.15;;;;;;;2.68;76.38;100647.72;4838256;29;20044;-75
2021/01/04 04:43:27;;;;;;;2.83;1.40;;;;;;;2.61;76.98;100647.75;4855562;29;20441;-73
2021/01/04 04:45:54;;;;;;;1.95;1.10;;;;;;;2.55;76.65;100647.75;4849303;29;20119;-74
2021/01/04 04:48:28;;;;;;;6.90;1.40;;;;;;;2.50;77.47;100640.28;4847093;29;20045;-74
2021/01/04 04:51:12;;;;;;;1.40;0.80;;;;;;;2.45;77.56;100645.44;4858227;29;20048;-74
2021/01/04 04:54:01;;;;;;;1.55;0.90;;;;;;;2.41;76.70;100655.00;4860097;29;20535;-74
2021/01/04 04:56:48;;;;;;;1.98;1.80;;;;;;;2.39;77.92;100648.97;4849824;29;20033;-73
2021/01/04 04:59:44;;;;;;;2.58;1.10;;;;;;;2.34;77.08;100651.47;4844742;29;20025;-75
2021/01/04 05:02:35;;;;;;;0.80;0.80;;;;;;;2.30;76.95;100639.44;4858164;29;20025;-75
2021/01/04 05:05:13;;;;;;;3.50;1.80;;;;;;;2.30;77.48;100650.22;4858167;29;20050;-75
2021/01/04 05:07:45;;;;;;;10.63;1.88;;;;;;;2.29;77.67;100643.97;4873876;29;20037;-75
2021/01/04 05:10:30;;;;;;;5.50;0.73;;;;;;;2.29;78.56;100645.84;4853212;29;20064;-76
2021/01/04 05:13:28;;;;;;;4.65;1.77;;;;;;;2.29;77.40;100635.06;4850273;29;20045;-74
2021/01/04 05:16:03;;;;;;;2.13;0.88;;;;;;;2.29;77.50;100635.06;4845429;29;20070;-73
2021/01/04 05:19:25;;;;;;;3.80;1.35;;;;;;;2.19;77.42;100636.31;4860499;29;20059;-75
2021/01/04 05:22:39;;;;;;;7.95;1.65;;;;;;;2.11;77.82;100641.88;4815483;29;20042;-74
2021/01/04 05:25:47;;;;;;;5.85;0.80;;;;;;;2.06;77.71;100641.69;4812216;29;20065;-74
2021/01/04 05:28:32;;;;;;;1.23;1.10;;;;;;;2.01;78.40;100633.34;4862864;29;20041;-73
2021/01/04 05:31:03;;;;;;;1.05;0.88;;;;;;;2.01;77.57;100644.16;4848319;29;20044;-74
2021/01/04 05:34:01;;;;;;;5.35;1.10;;;;;;;1.98;79.17;100641.88;4859371;29;20366;-73
2021/01/04 05:36:29;;;;;;;1.55;0.75;;;;;;;1.95;79.32;100650.38;4852185;29;20136;-73
2021/01/04 05:39:29;;;;;;;3.03;1.17;;;;;;;1.96;78.96;100646.59;4852033;29;20033;-74
2021/01/04 05:42:26;;;;;;;2.80;1.00;;;;;;;1.92;78.74;100648.91;4849088;29;20037;-73
2021/01/04 05:45:29;;;;;;;1.38;0.85;;;;;;;1.95;78.41;100653.06;4849037;29;20030;-74
2021/01/04 05:48:12;;;;;;;2.72;0.85;;;;;;;1.94;79.53;100648.69;4845828;29;20049;-74
2021/01/04 05:50:45;;;;;;;3.72;0.93;;;;;;;1.93;78.93;100653.28;4853627;29;20041;-73
2021/01/04 05:53:11;;;;;;;3.70;1.27;;;;;;;1.97;78.80;100651.84;4846691;29;20481;-73
2021/01/04 05:55:36;;;;;;;2.65;0.90;;;;;;;1.96;78.93;100655.56;4862646;29;20045;-73
2021/01/04 05:58:14;;;;;;;1.58;1.08;;;;;;;1.98;79.12;100658.03;4853610;29;20033;-74
2021/01/04 06:00:39;;;;;;;2.78;0.93;;;;;;;1.95;78.41;100647.66;4859588;29;20037;-74
2021/01/04 06:03:20;;;;;;;1.30;1.20;;;;;;;1.92;78.89;100648.91;4855491;29;20048;-74
2021/01/04 06:05:47;;;;;;;5.13;1.40;;;;;;;1.87;78.63;100646.81;4850263;29;20044;-74
2021/01/04 06:08:28;;;;;;;7.10;1.70;;;;;;;1.87;79.00;100648.66;4823216;29;20033;-74
2021/01/04 06:11:11;;;;;;;4.97;1.15;;;;;;;1.88;79.75;100645.78;4860750;29;21549;-74
2021/01/04 06:13:40;;;;;;;0.65;0.65;;;;;;;1.87;79.97;100641.41;4851435;29;20122;-74
2021/01/04 06:16:16;;;;;;;2.40;1.58;;;;;;;1.91;79.43;100641.84;4854263;29;20061;-73
2021/01/04 06:18:49;;;;;;;6.22;1.52;;;;;;;1.95;79.04;100639.56;4848439;29;20032;-74
2021/01/04 06:21:33;;;;;;;0.85;0.85;;;;;;;1.94;79.93;100651.38;4849995;29;20384;-73
2021/01/04 06:24:01;;;;;;;2.92;1.15;;;;;;;1.93;79.37;100655.97;4864266;29;20068;-73
2021/01/04 06:26:26;;;;;;;2.58;0.65;;;;;;;1.94;79.92;100652.22;4855195;29;20425;-74
2021/01/04 06:28:59;;;;;;;5.13;1.17;;;;;;;1.98;79.30;100655.34;4864262;29;20033;-73
2021/01/04 06:31:32;;;;;;;5.03;1.60;;;;;;;1.96;79.36;100655.56;4855851;29;20104;-74
2021/01/04 06:34:00;;;;;;;1.42;0.75;;;;;;;1.93;78.67;100642.47;4855674;29;20493;-73
2021/01/04 06:36:28;;;;;;;6.70;1.35;;;;;;;1.96;79.73;100650.16;4849847;29;20040;-74
2021/01/04 06:38:54;;;;;;;8.13;1.17;;;;;;;1.97;79.64;100642.88;4862907;29;20029;-74
2021/01/04 06:41:31;;;;;;;3.00;1.10;;;;;;;1.99;78.45;100643.53;4851654;29;20044;-74
2021/01/04 06:44:08;;;;;;;1.10;0.80;;;;;;;1.99;78.93;100651.63;4846695;29;20032;-74
2021/01/04 06:47:06;;;;;;;7.32;0.80;;;;;;;2.03;78.61;100651.00;4849784;29;20071;-74
2021/01/04 06:49:42;;;;;;;3.53;0.80;;;;;;;2.02;79.38;100659.31;4831462;29;20093;-74
2021/01/04 06:52:36;;;;;;;8.20;0.93;;;;;;;2.05;79.14;100659.72;4871308;29;20398;-73
2021/01/04 06:55:39;;;;;;;1.80;0.52;;;;;;;2.05;78.86;100669.69;4854480;29;20033;-74
2021/01/04 06:58:16;;;;;;;2.13;0.80;;;;;;;2.01;78.68;100652.25;4854984;29;20056;-74
2021/01/04 07:01:29;;;;;;;5.75;0.98;;;;;;;2.01;78.52;100657.63;4844660;29;20037;-75
2021/01/04 07:04:03;;;;;;;2.92;0.55;;;;;;;1.99;79.35;100662.41;4845900;29;20072;-74
2021/01/04 07:07:04;;;;;;;3.08;0.95;;;;;;;2.00;79.25;100658.66;4843409;29;20046;-73
2021/01/04 07:09:41;;;;;;;1.65;0.90;;;;;;;2.04;78.93;100662.63;4851364;29;20048;-73
2021/01/04 07:12:17;;;;;;;0.60;0.60;;;;;;;2.06;78.60;100660.56;4854133;29;20089;-73
2021/01/04 07:15:09;;;;;;;0.93;0.68;;;;;;;2.07;79.30;100664.91;4844033;29;20476;-74
2021/01/04 07:17:46;;;;;;;3.90;1.10;;;;;;;2.06;78.23;100668.66;4855473;29;20556;-73
2021/01/04 07:20:22;;;;;;;0.93;0.80;;;;;;;2.07;79.62;100667.59;4850834;29;20030;-74
2021/01/04 07:23:00;;;;;;;1.08;0.73;;;;;;;2.14;79.47;100673.84;4849232;29;20116;-73
2021/01/04 07:25:40;;;;;;;6.55;0.90;;;;;;;2.16;79.07;100663.69;4861336;29;20086;-74
2021/01/04 07:28:26;;;;;;;1.58;0.70;;;;;;;2.20;78.59;100673.03;4853868;29;20033;-73
2021/01/04 07:30:57;;;;;;;0.40;0.40;;;;;;;2.25;78.99;100664.34;4847432;29;20029;-74
2021/01/04 07:33:38;;;;;;;6.72;1.13;;;;;;;2.33;78.25;100663.31;4844960;29;20037;-74
2021/01/04 07:36:24;;;;;;;1.63;0.70;;;;;;;2.31;79.54;100660.81;4851649;29;20493;-73
2021/01/04 07:38:58;;;;;;;1.92;0.70;;;;;;;2.29;78.54;100653.94;4825683;29;20110;-71
2021/01/04 07:41:37;;;;;;;2.53;0.70;;;;;;;2.29;78.66;100648.56;4848824;29;20025;-73
2021/01/04 07:44:38;;;;;;;6.28;1.23;;;;;;;2.31;79.01;100652.72;4855611;29;20041;-72
2021/01/04 07:47:46;;;;;;;5.53;0.85;;;;;;;2.33;80.09;100657.91;4853586;29;20053;-72
2021/01/04 07:50:29;;;;;;;7.13;1.35;;;;;;;2.37;80.32;100651.88;4853071;29;20044;-72
2021/01/04 07:53:34;;;;;;;6.53;0.93;;;;;;;2.38;79.99;100658.97;4862434;29;20045;-71
2021/01/04 07:56:32;;;;;;;5.60;0.95;;;;;;;2.43;79.26;100666.44;4850757;29;20036;-72
2021/01/04 07:59:26;;;;;;;1.65;1.08;;;;;;;2.42;80.38;100672.84;4841355;29;20152;-74
2021/01/04 08:02:01;;;;;;;5.00;1.17;;;;;;;2.45;79.35;100669.75;4825517;29;20076;-74
2021/01/04 08:04:44;;;;;;;10.60;1.63;;;;;;;2.48;80.29;100658.53;4866672;29;20425;-74
2021/01/04 08:08:13;;;;;;;0.88;0.88;;;;;;;2.52;79.40;100661.66;4853677;29;20382;-74
2021/01/04 08:10:51;;;;;;;3.85;1.30;;;;;;;2.56;79.49;100665.63;4835813;29;20078;-75
2021/01/04 08:13:35;;;;;;;1.13;1.02;;;;;;;2.58;79.77;100664.34;4863955;29;20053;-75
2021/01/04 08:16:19;;;;;;;12.38;1.52;;;;;;;2.61;80.13;100663.97;4855208;29;20044;-76
2021/01/04 08:18:55;;;;;;;2.13;0.85;;;;;;;2.65;79.67;100669.75;4850735;29;20093;-73
2021/01/04 08:21:23;;;;;;;8.02;1.80;;;;;;;2.72;80.31;100677.88;4854212;29;20033;-73
2021/01/04 08:24:04;;;;;;;1.77;0.77;;;;;;;2.80;79.64;100672.25;4852646;29;20041;-72
2021/01/04 08:26:51;;;;;;;3.67;1.13;;;;;;;2.82;79.34;100670.19;4867089;29;20040;-72
2021/01/04 08:29:42;;;;;;;2.90;1.23;;;;;;;2.88;79.82;100668.53;4844884;29;20037;-71
2021/01/04 08:32:41;;;;;;;2.15;0.82;;;;;;;2.94;78.47;100673.91;4849135;29;20129;-71
2021/01/04 08:35:29;;;;;;;2.28;0.85;;;;;;;3.01;79.07;100683.84;4862195;29;20038;-72
2021/01/04 08:38:19;;;;;;;2.03;1.20;;;;;;;3.03;78.50;100682.63;4851444;29;20157;-73
2021/01/04 08:41:33;;;;;;;3.47;0.70;;;;;;;3.13;78.30;100690.31;4849119;29;20041;-73
2021/01/04 08:43:58;;;;;;;1.15;1.02;;;;;;;3.19;78.52;100692.16;4852466;29;20037;-73
2021/01/04 08:46:24;;;;;;;19.15;1.50;;;;;;;3.25;78.73;100704.81;4844900;29;20110;-73
2021/01/04 08:49:14;;;;;;;6.20;0.93;;;;;;;3.31;77.76;100704.00;4856234;29;20203;-74
2021/01/04 08:51:41;;;;;;;4.38;1.63;;;;;;;3.34;78.42;100699.19;4867244;29;20389;-74
2021/01/04 08:54:41;;;;;;;6.53;1.00;;;;;;;3.40;78.19;100703.75;4860244;29;20046;-74
2021/01/04 08:58:06;;;;;;;;;;;;;;;;;;;;;
2021/01/04 09:00:32;;;;;;;12.25;2.10;;;;;;;3.45;77.54;100685.03;4855165;29;20043;-75
2021/01/04 09:03:00;;;;;;;2.33;1.20;;;;;;;3.49;77.59;100691.69;4853503;29;20029;-75
2021/01/04 09:05:39;;;;;;;6.97;1.48;;;;;;;3.62;77.67;100697.06;4867467;29;20029;-75
2021/01/04 09:08:06;;;;;;;2.65;0.73;;;;;;;3.60;77.43;100691.00;4854820;29;20033;-76
2021/01/04 09:10:46;;;;;;;1.27;1.08;;;;;;;3.70;77.53;100687.03;4850537;29;20033;-75
2021/01/04 09:13:31;;;;;;;3.15;0.90;;;;;;;3.82;76.83;100698.84;4858339;29;20473;-77
2021/01/04 09:16:29;;;;;;;1.23;0.85;;;;;;;3.77;76.45;100680.56;4856864;29;20147;-75
2021/01/04 09:19:17;;;;;;;3.30;1.00;;;;;;;3.91;76.39;100689.41;4870676;29;20029;-76
2021/01/04 09:21:45;;;;;;;3.35;0.93;;;;;;;3.93;76.20;100687.34;4854894;29;20026;-75
2021/01/04 09:24:22;;;;;;;2.53;0.77;;;;;;;4.11;77.24;100688.50;4869668;29;20036;-74
2021/01/04 09:26:53;;;;;;;9.23;1.30;;;;;;;4.16;76.44;100691.38;4855455;29;20037;-72
2021/01/04 09:29:29;;;;;;;2.53;1.35;;;;;;;4.25;76.81;100697.38;4852550;29;20059;-73
2021/01/04 09:32:09;;;;;;;2.90;1.25;;;;;;;4.27;75.68;100696.09;4864960;29;20775;-72
2021/01/04 09:34:37;;;;;;;8.18;1.10;;;;;;;4.30;76.35;100698.38;4853542;29;20085;-73
2021/01/04 09:37:21;;;;;;;7.10;0.90;;;;;;;4.36;76.28;100708.31;4853928;29;20116;-74
2021/01/04 09:39:50;;;;;;;3.95;1.13;;;;;;;4.38;75.66;100700.03;4867211;29;20049;-74
2021/01/04 09:42:26;;;;;;;1.90;0.82;;;;;;;4.46;75.68;100698.91;4835546;29;20080;-72
2021/01/04 09:45:00;;;;;;;5.50;1.13;;;;;;;4.48;75.61;100694.94;4850134;29;20050;-74
2021/01/04 09:47:51;;;;;;;3.28;1.35;;;;;;;4.63;75.99;100700.03;4851678;29;20057;-75
2021/01/04 09:50:30;;;;;;;2.80;1.23;;;;;;;4.67;75.12;100698.56;4852738;29;20042;-74
2021/01/04 09:53:06;;;;;;;3.05;0.80;;;;;;;4.74;75.09;100703.09;4847913;29;20029;-75
2021/01/04 09:55:38;;;;;;;4.13;0.60;;;;;;;4.74;74.44;100700.38;4852233;29;20033;-74
2021/01/04 09:58:06;;;;;;;2.35;1.17;;;;;;;4.72;74.58;100703.31;4844455;29;20029;-74
2021/01/04 10:00:35;;;;;;;2.17;0.68;;;;;;;4.78;74.93;100707.03;4845063;29;20041;-74
2021/01/04 10:03:27;;;;;;;3.95;1.33;;;;;;;4.78;74.52;100698.91;4852502;29;20044;-78
2021/01/04 10:05:53;;;;;;;2.58;1.15;;;;;;;4.79;74.71;100700.53;4868924;29;20524;-75
2021/01/04 10:08:24;;;;;;;5.55;1.00;;;;;;;4.84;74.86;100704.25;4820985;29;20041;-75
2021/01/04 10:10:56;;;;;;;2.38;1.25;;;;;;;4.88;74.17;100694.63;4847141;29;20037;-75
2021/01/04 10:13:26;;;;;;;3.40;0.98;;;;;;;4.87;74.25;100675.88;4853499;29;20048;-74
2021/01/04 10:15:54;;;;;;;0.88;0.77;;;;;;;4.93;74.71;100693.94;4854363;29;20048;-74
2021/01/04 10:18:28;;;;;;;0.57;0.52;;;;;;;5.00;74.43;100700.16;4854179;29;20025;-76
2021/01/04 10:20:54;;;;;;;5.57;0.88;;;;;;;5.12;74.53;100704.84;4855914;29;20485;-74
2021/01/04 10:23:29;;;;;;;2.22;0.60;;;;;;;5.14;74.12;100694.59;4852303;29;20041;-74
2021/01/04 10:25:58;;;;;;;2.53;1.15;;;;;;;5.28;74.10;100698.84;4855691;29;20487;-74
2021/01/04 10:28:29;;;;;;;2.33;0.75;;;;;;;5.38;74.07;100698.34;4850091;29;20041;-74
2021/01/04 10:31:07;;;;;;;5.50;1.02;;;;;;;5.53;73.33;100692.53;4857429;29;20470;-73
2021/01/04 10:33:37;;;;;;;2.47;0.90;;;;;;;5.56;72.89;100683.94;4853083;29;20030;-75
2021/01/04 10:36:09;;;;;;;1.63;0.68;;;;;;;5.56;72.68;100678.50;4855526;29;20532;-74
2021/01/04 10:38:38;;;;;;;0.82;0.75;;;;;;;5.59;72.59;100678.06;4847277;29;20473;-75
2021/01/04 10:41:11;;;;;;;5.32;1.13;;;;;;;5.56;73.04;100678.50;4853060;29;20025;-74
2021/01/04 10:43:37;;;;;;;2.85;1.05;;;;;;;5.60;72.67;100680.53;4850184;29;20495;-74
2021/01/04 10:46:21;;;;;;;5.70;0.93;;;;;;;5.64;72.70;100675.50;4848591;29;20394;-75
2021/01/04 10:49:25;;;;;;;7.45;0.93;;;;;;;5.72;72.63;100661.63;4868376;29;20768;-74
2021/01/04 10:51:54;;;;;;;4.18;1.33;;;;;;;5.64;72.37;100658.41;4870052;29;20040;-76
2021/01/04 10:54:34;;;;;;;5.85;0.73;;;;;;;5.67;72.33;100657.94;4835692;29;20041;-76
2021/01/04 10:57:03;;;;;;;2.17;1.15;;;;;;;5.66;72.07;100651.69;4858279;29;20049;-73
2021/01/04 10:59:37;;;;;;;1.75;0.60;;;;;;;5.80;72.53;100662.34;4863737;29;20038;-73
2021/01/04 11:02:02;;;;;;;4.75;1.08;;;;;;;5.85;72.19;100654.38;4866568;29;20028;-76
2021/01/04 11:04:28;;;;;;;8.00;0.90;;;;;;;5.91;71.79;100654.28;4840430;29;20053;-75
2021/01/04 11:07:06;;;;;;;2.75;0.75;;;;;;;6.06;72.38;100653.91;4853141;29;20049;-74
2021/01/04 11:09:40;;;;;;;3.42;0.60;;;;;;;6.20;72.27;100657.25;4852619;29;20034;-75
2021/01/04 11:12:17;;;;;;;6.15;1.00;;;;;;;6.35;71.80;100656.84;4850739;29;20049;-77
2021/01/04 11:15:00;;;;;;;2.38;0.95;;;;;;;6.38;70.65;100652.81;4851263;29;20046;-74
2021/01/04 11:17:31;;;;;;;1.85;0.68;;;;;;;6.38;70.67;100636.50;4853550;29;20081;-76
2021/01/04 11:20:15;;;;;;;3.90;0.73;;;;;;;6.44;71.35;100641.84;4854280;29;20166;-74
2021/01/04 11:22:41;;;;;;;2.75;0.82;;;;;;;6.40;70.69;100640.66;4853723;29;20037;-74
2021/01/04 11:25:08;;;;;;;1.50;0.70;;;;;;;6.47;70.99;100646.81;4853414;29;20145;-74
2021/01/04 11:27:33;;;;;;;3.20;0.60;;;;;;;6.49;70.61;100637.63;4843128;29;20033;-75
2021/01/04 11:29:59;;;;;;;2.05;0.65;;;;;;;6.50;70.62;100639.25;4856525;29;20342;-75
2021/01/04 11:32:24;;;;;;;5.03;0.95;;;;;;;6.51;70.42;100641.72;4845232;29;20044;-75
2021/01/04 11:34:53;;;;;;;9.18;1.65;;;;;;;6.61;70.17;100636.56;4839127;29;20037;-74
2021/01/04 11:37:21;;;;;;;1.15;1.05;;;;;;;6.66;70.74;100637.72;4853275;29;20030;-73
2021/01/04 11:39:46;;;;;;;1.05;0.63;;;;;;;6.67;70.49;100625.81;4862694;29;20432;-74
2021/01/04 11:42:13;;;;;;;2.47;0.82;;;;;;;6.72;69.74;100629.47;4852587;29;20029;-76
2021/01/04 11:44:38;;;;;;;2.20;0.65;;;;;;;6.75;69.70;100623.56;4853674;29;20030;-76
2021/01/04 11:47:04;;;;;;;1.10;0.55;;;;;;;6.73;69.22;100628.44;4854422;29;20041;-74
2021/01/04 11:49:32;;;;;;;4.18;0.98;;;;;;;6.67;69.35;100618.47;4857371;29;20069;-74
2021/01/04 11:51:57;;;;;;;4.65;0.50;;;;;;;6.62;69.58;100621.91;4852069;29;20052;-76
2021/01/04 11:54:29;;;;;;;2.03;0.60;;;;;;;6.56;69.44;100614.69;4870939;29;20038;-78
2021/01/04 11:56:57;;;;;;;4.95;1.20;;;;;;;6.63;69.73;100611.88;4869015;29;20100;-74
2021/01/04 11:59:23;;;;;;;1.38;0.90;;;;;;;6.62;69.56;100615.66;4863697;29;20528;-75
2021/01/04 12:01:48;;;;;;;6.45;0.73;;;;;;;6.58;69.96;100609.03;4855592;29;20064;-72
2021/01/04 12:04:14;;;;;;;1.30;0.98;;;;;;;6.62;69.60;100615.66;4860813;29;20033;-73
2021/01/04 12:06:39;;;;;;;1.63;0.80;;;;;;;6.65;70.22;100612.47;4858846;29;20476;-74
2021/01/04 12:09:08;;;;;;;3.40;1.02;;;;;;;6.69;69.97;100610.94;4858576;29;20477;-75
2021/01/04 12:11:38;;;;;;;1.92;0.68;;;;;;;6.76;69.50;100600.78;4857991;29;20531;-75
2021/01/04 12:14:05;;;;;;;2.00;0.57;;;;;;;6.81;69.42;100600.88;4857814;29;20209;-76
2021/01/04 12:16:33;;;;;;;6.18;1.17;;;;;;;6.86;68.73;100604.78;4859018;29;20033;-74
2021/01/04 12:18:59;;;;;;;4.50;0.90;;;;;;;6.91;69.36;100602.19;4869710;29;20488;-74
2021/01/04 12:21:26;;;;;;;1.08;0.55;;;;;;;6.97;68.50;100587.63;4858483;29;20481;-74
2021/01/04 12:23:52;;;;;;;1.33;0.65;;;;;;;6.99;68.71;100599.09;4852790;29;20049;-73
2021/01/04 12:26:22;;;;;;;3.00;0.73;;;;;;;7.04;68.49;100592.94;4853422;29;21473;-74
2021/01/04 12:28:48;;;;;;;1.90;0.65;;;;;;;7.02;68.48;100590.47;4840714;29;20491;-74
2021/01/04 12:31:14;;;;;;;2.92;0.73;;;;;;;7.02;68.58;100582.31;4856924;29;20158;-72
2021/01/04 12:33:40;;;;;;;2.05;0.88;;;;;;;7.04;68.12;100585.63;4854386;29;20116;-74
2021/01/04 12:36:07;;;;;;;2.08;0.90;;;;;;;7.09;67.70;100596.59;4838249;29;20120;-75